createdAt,value
2018-11-29T00:01:53.248Z,-0.80
2018-11-29T00:04:21.712Z,-0.80
2018-11-29T00:06:50.186Z,-0.80
2018-11-29T00:09:18.581Z,-0.80
2018-11-29T00:11:47.159Z,-0.80
2018-11-29T00:14:15.565Z,-0.80
2018-11-29T00:16:43.961Z,-0.80
2018-11-29T00:19:12.377Z,-0.80
2018-11-29T00:21:40.814Z,-0.80
2018-11-29T00:24:09.218Z,-0.80
2018-11-29T00:26:37.794Z,-0.80
2018-11-29T00:31:34.355Z,-0.60
2018-11-29T00:34:02.795Z,-0.60
2018-11-29T00:36:31.216Z,-0.70
2018-11-29T00:38:59.597Z,-0.80
2018-11-29T00:41:28.011Z,-0.80
2018-11-29T00:43:56.439Z,-0.80
2018-11-29T00:46:24.854Z,-0.80
2018-11-29T00:48:53.964Z,-0.80
2018-11-29T00:51:22.395Z,-0.80
2018-11-29T00:53:50.798Z,-0.80
2018-11-29T00:56:19.239Z,-0.80
2018-11-29T00:58:47.662Z,-0.90
2018-11-29T01:01:16.066Z,-0.90
2018-11-29T01:03:44.489Z,-1.00
2018-11-29T01:06:12.898Z,-1.00
2018-11-29T01:11:09.416Z,-1.00
2018-11-29T01:13:37.798Z,-1.00
2018-11-29T01:16:06.223Z,-0.90
2018-11-29T01:18:34.617Z,-0.90
2018-11-29T01:21:03.021Z,-1.00
2018-11-29T01:23:31.401Z,-0.90
2018-11-29T01:25:59.831Z,-1.00
2018-11-29T01:28:28.226Z,-1.00
2018-11-29T01:30:56.655Z,-1.00
2018-11-29T01:33:25.111Z,-0.90
2018-11-29T01:35:53.544Z,-0.90
2018-11-29T01:38:21.963Z,-1.00
2018-11-29T01:40:50.389Z,-1.10
2018-11-29T01:43:18.783Z,-1.10
2018-11-29T01:48:15.341Z,-1.20
2018-11-29T01:53:11.899Z,-1.20
2018-11-29T01:55:40.317Z,-1.20
2018-11-29T01:58:08.709Z,-1.20
2018-11-29T02:00:37.228Z,-1.20
2018-11-29T02:05:34.194Z,-1.20
2018-11-29T02:08:02.755Z,-1.20
2018-11-29T02:10:36.514Z,-1.20
2018-11-29T02:13:04.933Z,-1.20
2018-11-29T02:15:33.329Z,-1.20
2018-11-29T02:18:01.762Z,-1.20
2018-11-29T02:20:30.157Z,-1.10
2018-11-29T02:22:58.550Z,-1.20
2018-11-29T02:25:26.934Z,-1.20
2018-11-29T02:27:55.339Z,-1.10
2018-11-29T02:30:23.753Z,-1.10
2018-11-29T02:32:52.643Z,-1.10
2018-11-29T02:35:21.112Z,-1.00
2018-11-29T02:37:49.625Z,-1.00
2018-11-29T02:40:18.697Z,-1.10
2018-11-29T02:42:48.293Z,-1.10
2018-11-29T02:45:24.634Z,-1.10
2018-11-29T02:47:53.046Z,-1.10
2018-11-29T02:50:21.469Z,-1.10
2018-11-29T02:52:49.894Z,-1.00
2018-11-29T02:55:18.322Z,-1.00
2018-11-29T02:57:46.765Z,-0.90
2018-11-29T03:00:17.051Z,-1.00
2018-11-29T03:02:45.543Z,-1.00
2018-11-29T03:05:14.325Z,-1.10
2018-11-29T03:07:42.764Z,-1.20
2018-11-29T03:10:12.177Z,-1.30
2018-11-29T03:12:40.793Z,-1.30
2018-11-29T03:15:11.635Z,-1.40
2018-11-29T03:17:40.238Z,-1.50
2018-11-29T03:22:37.477Z,-1.40
2018-11-29T03:25:09.099Z,-1.40
2018-11-29T03:27:37.515Z,-1.30
2018-11-29T03:30:08.075Z,-1.20
2018-11-29T03:32:36.490Z,-1.20
2018-11-29T03:35:05.003Z,-1.20
2018-11-29T03:37:33.399Z,-1.30
2018-11-29T03:42:30.022Z,-1.30
2018-11-29T03:44:58.466Z,-1.30
2018-11-29T03:47:26.883Z,-1.30
2018-11-29T03:49:55.338Z,-1.40
2018-11-29T03:52:23.786Z,-1.40
2018-11-29T03:54:52.286Z,-1.50
2018-11-29T03:57:20.673Z,-1.50
2018-11-29T03:59:49.128Z,-1.50
2018-11-29T04:02:17.530Z,-1.40
2018-11-29T04:04:46.113Z,-1.50
2018-11-29T04:07:14.528Z,-1.50
2018-11-29T04:09:43.112Z,-1.50
2018-11-29T04:12:11.546Z,-1.50
2018-11-29T04:14:39.959Z,-1.50
2018-11-29T04:17:08.339Z,-1.50
2018-11-29T04:19:36.886Z,-1.50
2018-11-29T04:22:05.638Z,-1.40
2018-11-29T04:24:34.777Z,-1.40
2018-11-29T04:27:03.182Z,-1.40
2018-11-29T04:29:31.652Z,-1.40
2018-11-29T04:32:00.061Z,-1.20
2018-11-29T04:34:29.242Z,-1.10
2018-11-29T04:36:57.670Z,-1.10
2018-11-29T04:39:26.070Z,-1.10
2018-11-29T04:41:54.517Z,-1.20
2018-11-29T04:49:20.983Z,-1.00
2018-11-29T04:51:49.402Z,-1.00
2018-11-29T04:54:17.814Z,-1.20
2018-11-29T04:56:46.367Z,-1.20
2018-11-29T04:59:14.782Z,-1.10
2018-11-29T05:01:43.193Z,-1.10
2018-11-29T05:04:11.664Z,-1.10
2018-11-29T05:06:40.081Z,-1.10
2018-11-29T05:09:09.860Z,-1.20
2018-11-29T05:11:39.131Z,-1.20
2018-11-29T05:16:35.678Z,-1.50
2018-11-29T05:19:04.142Z,-1.60
2018-11-29T05:21:32.615Z,-1.70
2018-11-29T05:24:01.102Z,-1.80
2018-11-29T05:28:57.703Z,-1.90
2018-11-29T05:33:54.210Z,-1.90
2018-11-29T05:36:22.609Z,-1.90
2018-11-29T05:38:51.002Z,-1.90
2018-11-29T05:43:47.515Z,-1.90
2018-11-29T05:46:15.938Z,-1.80
2018-11-29T05:48:44.365Z,-1.80
2018-11-29T05:51:12.889Z,-1.80
2018-11-29T05:56:09.412Z,-1.90
2018-11-29T05:58:37.797Z,-1.90
2018-11-29T06:01:13.980Z,-1.80
2018-11-29T06:03:42.447Z,-1.80
2018-11-29T06:06:10.889Z,-1.90
2018-11-29T06:08:39.301Z,-1.90
2018-11-29T06:11:07.768Z,-1.80
2018-11-29T06:13:36.179Z,-2.00
2018-11-29T06:18:32.758Z,-2.10
2018-11-29T06:21:01.170Z,-2.00
2018-11-29T06:23:29.550Z,-2.00
2018-11-29T06:25:58.005Z,-2.20
2018-11-29T06:28:26.411Z,-2.30
2018-11-29T06:30:54.810Z,-2.30
2018-11-29T06:33:23.219Z,-2.30
2018-11-29T06:35:51.634Z,-2.30
2018-11-29T06:38:20.052Z,-2.30
2018-11-29T06:40:48.648Z,-2.30
2018-11-29T06:43:17.071Z,-2.30
2018-11-29T06:45:45.487Z,-2.30
2018-11-29T06:48:13.887Z,-2.30
2018-11-29T06:50:42.324Z,-2.30
2018-11-29T06:53:15.865Z,-2.30
2018-11-29T06:55:44.275Z,-2.30
2018-11-29T06:58:12.709Z,-2.30
2018-11-29T07:00:41.099Z,-2.30
2018-11-29T07:03:09.510Z,-2.10
2018-11-29T07:05:37.984Z,-2.10
2018-11-29T07:08:06.653Z,-2.10
2018-11-29T07:10:35.811Z,-2.00
2018-11-29T07:13:05.555Z,-1.80
2018-11-29T07:15:33.970Z,-1.80
2018-11-29T07:18:02.926Z,-1.80
2018-11-29T07:20:31.356Z,-1.80
2018-11-29T07:22:59.784Z,-1.80
2018-11-29T07:25:28.213Z,-1.80
2018-11-29T07:35:22.266Z,-1.70
2018-11-29T07:37:50.666Z,-1.60
2018-11-29T07:40:19.693Z,-1.60
2018-11-29T07:42:50.286Z,-1.40
2018-11-29T07:45:19.611Z,-1.40
2018-11-29T07:47:48.130Z,-1.20
2018-11-29T07:50:18.953Z,-1.10
2018-11-29T07:52:47.608Z,-1.00
2018-11-29T07:55:18.924Z,-0.70
2018-11-29T07:57:48.489Z,-0.70
2018-11-29T08:00:17.211Z,-0.70
2018-11-29T08:02:45.664Z,-0.70
2018-11-29T08:05:15.059Z,-0.70
2018-11-29T08:07:47.502Z,-0.60
2018-11-29T08:10:15.148Z,-0.60
2018-11-29T08:12:43.570Z,-0.70
2018-11-29T08:17:40.997Z,-0.80
2018-11-29T08:20:12.302Z,-0.90
2018-11-29T08:22:40.755Z,-0.80
2018-11-29T08:25:09.855Z,-0.70
2018-11-29T08:27:38.290Z,-0.50
2018-11-29T08:30:10.964Z,-0.30
2018-11-29T08:32:39.415Z,-0.20
2018-11-29T08:35:09.074Z,0.10
2018-11-29T08:37:37.667Z,0.30
2018-11-29T08:40:10.134Z,0.50
2018-11-29T08:42:38.534Z,0.70
2018-11-29T08:45:08.730Z,0.80
2018-11-29T08:50:06.935Z,1.10
2018-11-29T08:52:35.310Z,1.30
2018-11-29T08:55:03.716Z,1.40
2018-11-29T08:57:32.098Z,1.40
2018-11-29T09:00:00.514Z,1.40
2018-11-29T09:02:28.908Z,1.40
2018-11-29T09:04:57.287Z,1.40
2018-11-29T09:07:25.662Z,1.30
2018-11-29T09:09:54.062Z,1.30
2018-11-29T09:12:22.418Z,1.40
2018-11-29T09:14:50.830Z,1.40
2018-11-29T09:17:19.238Z,1.60
2018-11-29T09:22:15.702Z,1.70
2018-11-29T09:24:44.082Z,1.60
2018-11-29T09:27:12.452Z,1.50
2018-11-29T09:29:40.834Z,1.40
2018-11-29T09:32:09.263Z,1.50
2018-11-29T09:34:37.642Z,1.50
2018-11-29T09:37:06.057Z,1.60
2018-11-29T09:39:34.440Z,1.90
2018-11-29T09:42:03.081Z,1.90
2018-11-29T09:44:31.397Z,1.90
2018-11-29T09:49:27.819Z,2.00
2018-11-29T09:51:56.216Z,2.00
2018-11-29T09:54:24.625Z,2.20
2018-11-29T09:56:53.107Z,2.30
2018-11-29T10:01:49.652Z,2.70
2018-11-29T10:04:18.022Z,2.60
2018-11-29T10:09:14.506Z,3.10
2018-11-29T10:11:42.858Z,2.90
2018-11-29T10:14:11.267Z,3.00
2018-11-29T10:16:39.637Z,3.20
2018-11-29T10:19:08.017Z,3.20
2018-11-29T10:21:36.557Z,3.20
2018-11-29T10:24:04.987Z,3.50
2018-11-29T10:26:33.362Z,3.90
2018-11-29T10:29:01.727Z,4.20
2018-11-29T10:31:30.074Z,4.60
2018-11-29T10:33:58.478Z,4.80
2018-11-29T10:36:26.852Z,5.20
2018-11-29T10:41:23.308Z,6.00
2018-11-29T10:43:51.701Z,6.20
2018-11-29T10:46:20.087Z,6.30
2018-11-29T10:48:48.441Z,6.30
2018-11-29T10:51:16.816Z,6.60
2018-11-29T10:53:45.216Z,6.80
2018-11-29T10:56:13.606Z,6.70
2018-11-29T10:58:41.971Z,6.60
2018-11-29T11:01:15.614Z,6.50
2018-11-29T11:03:44.003Z,6.40
2018-11-29T11:06:12.378Z,6.10
2018-11-29T11:08:40.782Z,6.10
2018-11-29T11:11:09.185Z,5.90
2018-11-29T11:13:38.111Z,5.70
2018-11-29T11:16:07.084Z,5.70
2018-11-29T11:18:35.694Z,5.50
2018-11-29T11:21:04.137Z,5.30
2018-11-29T11:23:32.516Z,4.80
2018-11-29T11:26:00.908Z,4.60
2018-11-29T11:28:29.326Z,3.80
2018-11-29T11:30:57.712Z,3.60
2018-11-29T11:33:26.070Z,3.40
2018-11-29T11:35:54.497Z,3.20
2018-11-29T11:38:22.847Z,3.10
2018-11-29T11:40:51.238Z,3.00
2018-11-29T11:43:19.595Z,3.00
2018-11-29T11:45:47.974Z,3.00
2018-11-29T11:48:16.383Z,3.00
2018-11-29T11:53:12.850Z,3.00
2018-11-29T11:55:41.239Z,3.00
2018-11-29T11:58:09.734Z,3.00
2018-11-29T12:00:38.680Z,2.90
2018-11-29T12:03:11.520Z,2.80
2018-11-29T12:05:39.897Z,2.80
2018-11-29T12:08:08.528Z,2.80
2018-11-29T12:10:37.393Z,2.80
2018-11-29T12:13:06.864Z,2.90
2018-11-29T12:15:35.526Z,2.90
2018-11-29T12:18:03.942Z,2.80
2018-11-29T12:20:32.338Z,2.90
2018-11-29T12:23:00.735Z,2.90
2018-11-29T12:25:29.321Z,2.80
2018-11-29T12:27:57.679Z,2.80
2018-11-29T12:30:30.525Z,2.90
2018-11-29T12:33:02.203Z,2.80
2018-11-29T12:35:30.699Z,2.80
2018-11-29T12:37:59.304Z,2.80
2018-11-29T12:40:27.823Z,2.90
2018-11-29T12:42:56.233Z,2.90
2018-11-29T12:45:24.655Z,3.00
2018-11-29T12:47:53.033Z,3.00
2018-11-29T12:50:22.817Z,3.10
2018-11-29T12:52:51.220Z,3.10
2018-11-29T12:55:20.514Z,3.10
2018-11-29T12:58:04.605Z,3.00
2018-11-29T13:00:22.451Z,2.90
2018-11-29T13:02:53.899Z,2.80
2018-11-29T13:07:50.458Z,2.80
2018-11-29T13:10:19.982Z,2.80
2018-11-29T13:12:48.399Z,2.80
2018-11-29T13:15:22.362Z,2.80
2018-11-29T13:17:50.635Z,2.80
2018-11-29T13:20:19.973Z,2.80
2018-11-29T13:22:48.473Z,2.80
2018-11-29T13:25:18.747Z,2.80
2018-11-29T13:27:47.210Z,2.80
2018-11-29T13:30:16.750Z,2.80
2018-11-29T13:32:45.644Z,2.70
2018-11-29T13:35:18.649Z,2.60
2018-11-29T13:37:55.746Z,2.50
2018-11-29T13:40:24.352Z,2.40
2018-11-29T13:42:52.756Z,2.40
2018-11-29T13:45:21.231Z,2.40
2018-11-29T13:47:49.682Z,2.40
2018-11-29T13:50:18.371Z,2.40
2018-11-29T13:52:47.213Z,2.50
2018-11-29T13:55:16.404Z,2.40
2018-11-29T13:57:47.101Z,2.40
2018-11-29T14:00:19.462Z,2.40
2018-11-29T14:02:49.276Z,2.30
2018-11-29T14:05:17.862Z,2.20
2018-11-29T14:07:46.274Z,2.20
2018-11-29T14:12:45.002Z,2.00
2018-11-29T14:15:14.715Z,1.90
2018-11-29T14:17:43.336Z,1.80
2018-11-29T14:20:12.602Z,1.80
2018-11-29T14:22:41.191Z,1.70
2018-11-29T14:25:11.843Z,1.70
2018-11-29T14:27:40.781Z,1.70
2018-11-29T14:30:11.698Z,1.70
2018-11-29T14:32:40.075Z,1.60
2018-11-29T14:35:08.626Z,1.60
2018-11-29T14:37:37.022Z,1.50
2018-11-29T14:40:09.558Z,1.50
2018-11-29T14:42:37.968Z,1.50
2018-11-29T14:45:10.498Z,1.50
2018-11-29T14:47:38.882Z,1.40
2018-11-29T14:52:39.899Z,1.30
2018-11-29T14:55:10.023Z,1.30
2018-11-29T14:57:38.610Z,1.30
2018-11-29T15:00:11.476Z,1.30
2018-11-29T15:05:11.664Z,1.30
2018-11-29T15:07:40.069Z,1.30
2018-11-29T15:10:09.512Z,1.20
2018-11-29T15:12:38.073Z,1.20
2018-11-29T15:15:08.482Z,1.20
2018-11-29T15:17:37.181Z,1.20
2018-11-29T15:20:23.538Z,1.20
2018-11-29T15:22:51.925Z,1.20
2018-11-29T15:25:20.360Z,1.10
2018-11-29T15:27:48.815Z,1.00
2018-11-29T15:32:46.254Z,0.90
2018-11-29T15:35:14.842Z,1.00
2018-11-29T15:37:43.278Z,0.90
2018-11-29T15:40:13.850Z,0.90
2018-11-29T15:42:42.383Z,0.90
2018-11-29T15:45:15.391Z,0.90
2018-11-29T15:47:43.806Z,0.80
2018-11-29T15:50:13.271Z,0.80
2018-11-29T15:52:41.676Z,0.80
2018-11-29T15:55:12.593Z,0.70
2018-11-29T15:57:41.031Z,0.70
2018-11-29T16:00:26.229Z,0.70
2018-11-29T16:02:55.635Z,0.70
2018-11-29T16:07:52.150Z,0.60
2018-11-29T16:10:22.520Z,0.60
2018-11-29T16:12:51.030Z,0.60
2018-11-29T16:15:19.981Z,0.50
2018-11-29T16:17:49.263Z,0.50
2018-11-29T16:20:34.938Z,0.50
2018-11-29T16:25:31.454Z,0.30
2018-11-29T16:27:59.892Z,0.30
2018-11-29T16:31:02.910Z,0.30
2018-11-29T16:33:33.774Z,0.30
2018-11-29T16:36:02.278Z,0.30
2018-11-29T16:38:30.650Z,0.30
2018-11-29T16:40:59.035Z,0.30
2018-11-29T16:43:27.441Z,0.30
2018-11-29T16:45:55.876Z,0.30
2018-11-29T16:48:24.346Z,0.40
2018-11-29T16:50:52.710Z,0.40
2018-11-29T16:53:21.190Z,0.40
2018-11-29T16:55:49.547Z,0.50
2018-11-29T16:58:21.747Z,0.50
2018-11-29T17:00:50.122Z,0.40
2018-11-29T17:03:18.500Z,0.40
2018-11-29T17:05:46.901Z,0.40
2018-11-29T17:08:15.291Z,0.40
2018-11-29T17:10:43.670Z,0.30
2018-11-29T17:13:14.766Z,0.30
2018-11-29T17:15:43.143Z,0.30
2018-11-29T17:18:11.562Z,0.20
2018-11-29T17:20:39.973Z,0.10
2018-11-29T17:23:09.643Z,0.10
2018-11-29T17:25:38.068Z,0.00
2018-11-29T17:28:07.152Z,0.10
2018-11-29T17:30:35.958Z,0.10
2018-11-29T17:33:04.455Z,0.20
2018-11-29T17:35:32.862Z,0.30
2018-11-29T17:38:01.232Z,0.30
2018-11-29T17:40:29.630Z,0.40
2018-11-29T17:42:58.116Z,0.40
2018-11-29T17:45:28.600Z,0.40
2018-11-29T17:47:58.468Z,0.30
2018-11-29T17:50:31.267Z,0.30
2018-11-29T17:52:59.646Z,0.30
2018-11-29T17:55:28.074Z,0.30
2018-11-29T17:57:56.467Z,0.30
2018-11-29T18:00:26.938Z,0.30
2018-11-29T18:02:55.388Z,0.30
2018-11-29T18:05:23.774Z,0.30
2018-11-29T18:10:22.701Z,0.60
2018-11-29T18:15:21.791Z,0.50
2018-11-29T18:17:50.207Z,0.40
2018-11-29T18:20:18.583Z,0.30
2018-11-29T18:22:46.965Z,0.20
2018-11-29T18:25:16.078Z,0.10
2018-11-29T18:27:46.953Z,0.10
2018-11-29T18:30:16.403Z,0.00
2018-11-29T18:32:44.819Z,0.00
2018-11-29T18:35:13.880Z,-0.10
2018-11-29T18:40:15.735Z,0.00
2018-11-29T18:42:44.252Z,-0.10
2018-11-29T18:45:13.946Z,-0.10
2018-11-29T18:47:42.988Z,-0.10
2018-11-29T18:50:12.978Z,-0.10
2018-11-29T18:52:41.369Z,-0.10
2018-11-29T18:57:38.055Z,-0.10
2018-11-29T19:00:11.339Z,-0.10
2018-11-29T19:05:08.555Z,-0.10
2018-11-29T19:07:36.995Z,-0.10
2018-11-29T19:10:08.297Z,-0.10
2018-11-29T19:15:06.736Z,-0.10
2018-11-29T19:24:59.443Z,0.00
2018-11-29T19:29:55.961Z,-0.10
2018-11-29T19:34:52.482Z,-0.10
2018-11-29T19:37:20.855Z,-0.10
2018-11-29T19:39:49.229Z,-0.10
2018-11-29T19:42:17.731Z,-0.10
2018-11-29T19:44:46.030Z,-0.10
2018-11-29T19:47:14.408Z,0.00
2018-11-29T19:49:42.799Z,0.00
2018-11-29T19:52:11.162Z,0.00
2018-11-29T19:54:39.581Z,-0.10
2018-11-29T19:57:07.953Z,-0.10
2018-11-29T19:59:36.329Z,0.00
2018-11-29T20:02:04.837Z,0.00
2018-11-29T20:04:33.320Z,0.00
2018-11-29T20:07:01.702Z,0.10
2018-11-29T20:09:30.082Z,0.20
2018-11-29T20:11:58.437Z,0.20
2018-11-29T20:14:27.151Z,0.30
2018-11-29T20:16:55.284Z,0.40
2018-11-29T20:19:23.677Z,0.50
2018-11-29T20:21:52.081Z,0.60
2018-11-29T20:24:20.536Z,0.60
2018-11-29T20:26:49.010Z,0.60
2018-11-29T20:29:17.462Z,0.60
2018-11-29T20:31:45.811Z,0.50
2018-11-29T20:34:14.224Z,0.40
2018-11-29T20:36:42.626Z,0.30
2018-11-29T20:39:11.235Z,0.40
2018-11-29T20:41:39.611Z,0.30
2018-11-29T20:44:07.982Z,0.30
2018-11-29T20:49:04.466Z,0.30
2018-11-29T20:51:32.869Z,0.30
2018-11-29T20:56:29.422Z,0.40
2018-11-29T20:58:57.768Z,0.40
2018-11-29T21:01:26.159Z,0.40
2018-11-29T21:03:54.555Z,0.30
2018-11-29T21:06:22.951Z,0.50
2018-11-29T21:08:51.347Z,0.50
2018-11-29T21:11:19.743Z,0.30
2018-11-29T21:13:48.109Z,0.40
2018-11-29T21:16:16.502Z,0.40
2018-11-29T21:18:44.905Z,0.50
2018-11-29T21:21:13.309Z,0.50
2018-11-29T21:23:41.666Z,0.40
2018-11-29T21:26:10.079Z,0.50
2018-11-29T21:28:38.462Z,0.50
2018-11-29T21:31:06.874Z,0.50
2018-11-29T21:36:03.356Z,0.50
2018-11-29T21:38:31.735Z,0.50
2018-11-29T21:41:01.943Z,0.50
2018-11-29T21:43:30.342Z,0.50
2018-11-29T21:45:58.726Z,0.50
2018-11-29T21:48:27.094Z,0.50
2018-11-29T21:50:55.704Z,0.50
2018-11-29T21:53:24.148Z,0.40
2018-11-29T21:58:20.895Z,0.50
2018-11-29T22:00:49.297Z,0.50
2018-11-29T22:03:17.696Z,0.40
2018-11-29T22:05:46.098Z,0.50
2018-11-29T22:08:14.482Z,0.50
2018-11-29T22:10:42.980Z,0.50
2018-11-29T22:13:11.448Z,0.60
2018-11-29T22:15:40.542Z,0.60
2018-11-29T22:20:42.728Z,0.60
2018-11-29T22:25:39.489Z,0.40
2018-11-29T22:28:07.858Z,0.30
2018-11-29T22:30:36.320Z,0.30
2018-11-29T22:33:05.046Z,0.20
2018-11-29T22:35:33.568Z,0.30
2018-11-29T22:38:01.907Z,0.20
2018-11-29T22:40:30.326Z,0.10
2018-11-29T22:42:58.718Z,0.10
2018-11-29T22:45:27.147Z,0.10
2018-11-29T22:50:23.673Z,0.10
2018-11-29T22:52:52.125Z,0.00
2018-11-29T22:55:20.516Z,0.00
2018-11-29T22:57:48.920Z,0.10
2018-11-29T23:00:20.152Z,0.20
2018-11-29T23:02:49.834Z,0.10
2018-11-29T23:05:18.292Z,0.10
2018-11-29T23:07:46.721Z,0.00
2018-11-29T23:10:15.149Z,0.00
2018-11-29T23:12:43.565Z,0.00
2018-11-29T23:15:12.756Z,0.10
2018-11-29T23:17:41.162Z,0.20
2018-11-29T23:20:11.003Z,0.30
2018-11-29T23:22:40.265Z,0.30
2018-11-29T23:25:10.193Z,0.40
2018-11-29T23:27:38.694Z,0.30
2018-11-29T23:30:11.805Z,0.30
2018-11-29T23:32:41.213Z,0.40
2018-11-29T23:35:09.794Z,0.50
2018-11-29T23:37:38.263Z,0.60
2018-11-29T23:42:35.994Z,0.60
2018-11-29T23:45:05.819Z,0.70
2018-11-29T23:47:34.243Z,0.70
2018-11-29T23:50:02.677Z,0.60
2018-11-29T23:52:31.148Z,0.70
2018-11-29T23:54:59.581Z,0.60
2018-11-29T23:57:28.006Z,0.70
2018-11-29T23:59:56.450Z,0.60
